sensor_id;sensor_type;location;lat;lon;timestamp;temperature;humidity
17671;DHT22;8954;48.694;8.940;2022-11-23T07:52:10;1.70;99.90
17671;DHT22;8954;48.694;8.940;2022-11-23T07:54:36;1.70;99.90
17671;DHT22;8954;48.694;8.940;2022-11-23T07:57:02;1.70;99.90
17671;DHT22;8954;48.694;8.940;2022-11-23T07:59:27;1.90;99.90
17671;DHT22;8954;48.694;8.940;2022-11-23T08:01:53;2.00;99.90
17671;DHT22;8954;48.694;8.940;2022-11-23T08:04:19;2.10;99.90
17671;DHT22;8954;48.694;8.940;2022-11-23T08:06:44;2.20;99.90
17671;DHT22;8954;48.694;8.940;2022-11-23T08:09:10;2.30;99.90
17671;DHT22;8954;48.694;8.940;2022-11-23T08:11:35;2.40;99.90
17671;DHT22;8954;48.694;8.940;2022-11-23T08:14:01;2.50;99.90
17671;DHT22;8954;48.694;8.940;2022-11-23T08:16:26;2.60;99.90
17671;DHT22;8954;48.694;8.940;2022-11-23T08:18:52;2.70;99.90
17671;DHT22;8954;48.694;8.940;2022-11-23T08:21:18;2.80;99.90
17671;DHT22;8954;48.694;8.940;2022-11-23T08:23:43;2.90;99.90
17671;DHT22;8954;48.694;8.940;2022-11-23T08:26:09;3.00;99.90
17671;DHT22;8954;48.694;8.940;2022-11-23T08:28:34;3.10;99.90
17671;DHT22;8954;48.694;8.940;2022-11-23T08:31:09;3.30;99.90
17671;DHT22;8954;48.694;8.940;2022-11-23T08:33:39;3.40;99.90
17671;DHT22;8954;48.694;8.940;2022-11-23T08:36:07;3.50;99.90
17671;DHT22;8954;48.694;8.940;2022-11-23T08:38:33;3.60;99.90
17671;DHT22;8954;48.694;8.940;2022-11-23T08:41:00;3.70;99.90
17671;DHT22;8954;48.694;8.940;2022-11-23T08:43:27;3.90;99.90
17671;DHT22;8954;48.694;8.940;2022-11-23T08:45:59;4.00;99.90
17671;DHT22;8954;48.694;8.940;2022-11-23T08:48:26;4.20;99.90
17671;DHT22;8954;48.694;8.940;2022-11-23T08:50:52;4.40;99.90
17671;DHT22;8954;48.694;8.940;2022-11-23T08:53:18;4.60;99.90
17671;DHT22;8954;48.694;8.940;2022-11-23T08:55:44;4.70;99.90
17671;DHT22;8954;48.694;8.940;2022-11-23T08:58:10;4.80;99.90
17671;DHT22;8954;48.694;8.940;2022-11-23T09:00:36;4.90;99.90
17671;DHT22;8954;48.694;8.940;2022-11-23T09:03:02;5.00;99.90
17671;DHT22;8954;48.694;8.940;2022-11-23T09:05:29;5.20;99.90
17671;DHT22;8954;48.694;8.940;2022-11-23T09:07:58;5.50;99.90
17671;DHT22;8954;48.694;8.940;2022-11-23T09:10:23;6.50;99.90
17671;DHT22;8954;48.694;8.940;2022-11-23T09:12:49;8.50;99.90
17671;DHT22;8954;48.694;8.940;2022-11-23T09:17:41;13.60;99.90
17671;DHT22;8954;48.694;8.940;2022-11-23T09:20:07;16.30;99.90
17671;DHT22;8954;48.694;8.940;2022-11-23T09:22:34;18.30;94.00
17671;DHT22;8954;48.694;8.940;2022-11-23T09:24:59;19.80;87.40
17671;DHT22;8954;48.694;8.940;2022-11-23T09:27:25;20.20;83.20
17671;DHT22;8954;48.694;8.940;2022-11-23T09:29:51;21.10;79.70
17671;DHT22;8954;48.694;8.940;2022-11-23T09:32:16;22.70;72.60
17671;DHT22;8954;48.694;8.940;2022-11-23T09:34:42;23.40;66.90
17671;DHT22;8954;48.694;8.940;2022-11-23T09:37:10;22.50;68.20
17671;DHT22;8954;48.694;8.940;2022-11-23T09:39:35;22.80;66.80
17671;DHT22;8954;48.694;8.940;2022-11-23T09:45:22;23.50;62.60
17671;DHT22;8954;48.694;8.940;2022-11-23T09:47:55;22.80;63.00
17671;DHT22;8954;48.694;8.940;2022-11-23T09:50:43;22.20;64.00
17671;DHT22;8954;48.694;8.940;2022-11-23T09:53:20;22.00;63.50
17671;DHT22;8954;48.694;8.940;2022-11-23T09:55:49;22.00;63.60
17671;DHT22;8954;48.694;8.940;2022-11-23T09:58:21;22.00;63.90
17671;DHT22;8954;48.694;8.940;2022-11-23T10:01:04;22.10;63.20
17671;DHT22;8954;48.694;8.940;2022-11-23T10:03:36;22.20;62.50
17671;DHT22;8954;48.694;8.940;2022-11-23T10:09:35;21.60;64.40
17671;DHT22;8954;48.694;8.940;2022-11-23T10:11:59;21.30;64.00
17671;DHT22;8954;48.694;8.940;2022-11-23T10:17:14;22.10;63.10
17671;DHT22;8954;48.694;8.940;2022-11-23T10:24:59;22.50;63.30
17671;DHT22;8954;48.694;8.940;2022-11-23T10:27:28;23.30;60.70
17671;DHT22;8954;48.694;8.940;2022-11-23T10:29:54;23.80;60.10
17671;DHT22;8954;48.694;8.940;2022-11-23T10:32:31;24.40;58.10
17671;DHT22;8954;48.694;8.940;2022-11-23T10:35:30;24.50;58.70
17671;DHT22;8954;48.694;8.940;2022-11-23T10:38:16;25.30;57.00
17671;DHT22;8954;48.694;8.940;2022-11-23T10:46:28;25.00;55.80
17671;DHT22;8954;48.694;8.940;2022-11-23T10:48:56;24.70;56.50
17671;DHT22;8954;48.694;8.940;2022-11-23T10:51:32;25.10;56.50
17671;DHT22;8954;48.694;8.940;2022-11-23T10:54:03;25.60;56.00
17671;DHT22;8954;48.694;8.940;2022-11-23T10:56:29;25.60;55.20
17671;DHT22;8954;48.694;8.940;2022-11-23T10:58:56;24.90;55.40
17671;DHT22;8954;48.694;8.940;2022-11-23T11:01:25;24.50;56.30
17671;DHT22;8954;48.694;8.940;2022-11-23T11:03:55;24.20;56.80
17671;DHT22;8954;48.694;8.940;2022-11-23T11:06:30;24.20;57.40
17671;DHT22;8954;48.694;8.940;2022-11-23T11:08:57;25.20;55.60
17671;DHT22;8954;48.694;8.940;2022-11-23T11:11:36;26.30;54.00
17671;DHT22;8954;48.694;8.940;2022-11-23T11:16:56;26.10;54.10
17671;DHT22;8954;48.694;8.940;2022-11-23T11:19:33;25.90;54.20
17671;DHT22;8954;48.694;8.940;2022-11-23T11:22:01;24.90;55.20
17671;DHT22;8954;48.694;8.940;2022-11-23T11:24:43;24.90;55.30
17671;DHT22;8954;48.694;8.940;2022-11-23T11:27:15;25.00;55.30
17671;DHT22;8954;48.694;8.940;2022-11-23T11:32:20;25.30;54.70
17671;DHT22;8954;48.694;8.940;2022-11-23T11:37:28;25.30;55.10
17671;DHT22;8954;48.694;8.940;2022-11-23T11:40:02;25.40;54.40
17671;DHT22;8954;48.694;8.940;2022-11-23T11:42:43;26.00;53.50
17671;DHT22;8954;48.694;8.940;2022-11-23T11:45:30;25.70;53.80
17671;DHT22;8954;48.694;8.940;2022-11-23T11:50:36;25.70;53.30
17671;DHT22;8954;48.694;8.940;2022-11-23T11:53:09;25.70;54.10
17671;DHT22;8954;48.694;8.940;2022-11-23T11:55:56;26.20;53.30
17671;DHT22;8954;48.694;8.940;2022-11-23T11:58:24;26.60;52.40
17671;DHT22;8954;48.694;8.940;2022-11-23T12:01:12;27.40;51.10
17671;DHT22;8954;48.694;8.940;2022-11-23T12:03:46;27.20;49.40
17671;DHT22;8954;48.694;8.940;2022-11-23T12:06:25;26.00;50.40
17671;DHT22;8954;48.694;8.940;2022-11-23T12:09:02;25.50;51.40
17671;DHT22;8954;48.694;8.940;2022-11-23T12:11:31;25.50;51.70
17671;DHT22;8954;48.694;8.940;2022-11-23T12:14:02;25.70;51.20
17671;DHT22;8954;48.694;8.940;2022-11-23T12:19:33;26.90;49.70
17671;DHT22;8954;48.694;8.940;2022-11-23T12:30:19;26.10;49.90
17671;DHT22;8954;48.694;8.940;2022-11-23T12:41:51;25.90;50.90
17671;DHT22;8954;48.694;8.940;2022-11-23T12:44:31;26.60;50.10
17671;DHT22;8954;48.694;8.940;2022-11-23T12:58:33;23.70;55.20
17671;DHT22;8954;48.694;8.940;2022-11-23T13:09:40;23.20;55.10
17671;DHT22;8954;48.694;8.940;2022-11-23T13:12:21;21.90;57.40
17671;DHT22;8954;48.694;8.940;2022-11-23T13:15:03;20.90;60.00
17671;DHT22;8954;48.694;8.940;2022-11-23T13:20:39;21.60;58.90
17671;DHT22;8954;48.694;8.940;2022-11-23T13:23:09;21.40;57.80
17671;DHT22;8954;48.694;8.940;2022-11-23T13:25:35;19.50;61.00
17671;DHT22;8954;48.694;8.940;2022-11-23T13:28:25;17.60;64.90
17671;DHT22;8954;48.694;8.940;2022-11-23T13:34:02;14.20;75.10
17671;DHT22;8954;48.694;8.940;2022-11-23T13:38:57;15.80;73.10
17671;DHT22;8954;48.694;8.940;2022-11-23T13:44:18;14.50;75.20
17671;DHT22;8954;48.694;8.940;2022-11-23T13:47:26;13.60;77.70
17671;DHT22;8954;48.694;8.940;2022-11-23T13:49:52;12.80;80.10
17671;DHT22;8954;48.694;8.940;2022-11-23T13:52:31;12.00;83.00
17671;DHT22;8954;48.694;8.940;2022-11-23T13:57:42;11.30;85.70
17671;DHT22;8954;48.694;8.940;2022-11-23T14:03:49;11.10;88.20
17671;DHT22;8954;48.694;8.940;2022-11-23T14:06:37;11.40;87.20
17671;DHT22;8954;48.694;8.940;2022-11-23T14:09:16;11.00;88.10
17671;DHT22;8954;48.694;8.940;2022-11-23T14:23:06;9.40;93.00
17671;DHT22;8954;48.694;8.940;2022-11-23T14:33:45;8.90;94.80
17671;DHT22;8954;48.694;8.940;2022-11-23T14:36:24;8.70;95.40
17671;DHT22;8954;48.694;8.940;2022-11-23T14:41:41;8.70;95.90
17671;DHT22;8954;48.694;8.940;2022-11-23T14:44:12;8.70;96.10
17671;DHT22;8954;48.694;8.940;2022-11-23T14:47:01;8.60;96.40
17671;DHT22;8954;48.694;8.940;2022-11-23T14:49:27;8.50;96.80
17671;DHT22;8954;48.694;8.940;2022-11-23T14:51:53;8.30;97.20
17671;DHT22;8954;48.694;8.940;2022-11-23T14:54:19;8.20;97.90
17671;DHT22;8954;48.694;8.940;2022-11-23T14:56:46;8.00;98.60
17671;DHT22;8954;48.694;8.940;2022-11-23T14:59:36;8.00;98.80
17671;DHT22;8954;48.694;8.940;2022-11-23T15:02:14;7.90;99.50
17671;DHT22;8954;48.694;8.940;2022-11-23T15:07:55;7.70;99.90
17671;DHT22;8954;48.694;8.940;2022-11-23T15:13:41;7.30;99.90
17671;DHT22;8954;48.694;8.940;2022-11-23T15:16:10;7.10;99.90
17671;DHT22;8954;48.694;8.940;2022-11-23T15:18:37;6.90;99.90
17671;DHT22;8954;48.694;8.940;2022-11-23T15:23:40;6.90;99.90
17671;DHT22;8954;48.694;8.940;2022-11-23T15:26:13;6.80;99.90
17671;DHT22;8954;48.694;8.940;2022-11-23T16:55:26;7.10;99.90
17671;DHT22;8954;48.694;8.940;2022-11-23T16:57:51;7.10;99.90
17671;DHT22;8954;48.694;8.940;2022-11-23T17:00:19;7.20;99.90
17671;DHT22;8954;48.694;8.940;2022-11-23T17:02:45;7.20;99.90
17671;DHT22;8954;48.694;8.940;2022-11-23T17:05:19;7.30;99.90
17671;DHT22;8954;48.694;8.940;2022-11-23T17:07:46;7.30;99.90
17671;DHT22;8954;48.694;8.940;2022-11-23T17:10:12;7.40;99.90
17671;DHT22;8954;48.694;8.940;2022-11-23T17:12:38;7.40;99.90
17671;DHT22;8954;48.694;8.940;2022-11-23T17:15:06;7.50;99.90
17671;DHT22;8954;48.694;8.940;2022-11-23T17:17:32;7.50;99.90
17671;DHT22;8954;48.694;8.940;2022-11-23T17:19:57;7.50;99.90
17671;DHT22;8954;48.694;8.940;2022-11-23T17:22:23;7.40;99.90
17671;DHT22;8954;48.694;8.940;2022-11-23T17:24:49;7.30;99.90
17671;DHT22;8954;48.694;8.940;2022-11-23T17:27:21;7.20;99.90
17671;DHT22;8954;48.694;8.940;2022-11-23T17:29:53;7.10;99.90
17671;DHT22;8954;48.694;8.940;2022-11-23T17:32:20;7.00;99.90
17671;DHT22;8954;48.694;8.940;2022-11-23T17:34:45;7.00;99.90
17671;DHT22;8954;48.694;8.940;2022-11-23T17:37:16;7.00;99.90
17671;DHT22;8954;48.694;8.940;2022-11-23T17:39:44;7.00;99.90
17671;DHT22;8954;48.694;8.940;2022-11-23T17:42:10;7.00;99.90
17671;DHT22;8954;48.694;8.940;2022-11-23T17:44:36;7.00;99.90
17671;DHT22;8954;48.694;8.940;2022-11-23T17:47:02;7.00;99.90
17671;DHT22;8954;48.694;8.940;2022-11-23T17:49:28;6.90;99.90
17671;DHT22;8954;48.694;8.940;2022-11-23T17:51:54;6.90;99.90
17671;DHT22;8954;48.694;8.940;2022-11-23T17:54:21;6.90;99.90
17671;DHT22;8954;48.694;8.940;2022-11-23T17:56:48;6.80;99.90
17671;DHT22;8954;48.694;8.940;2022-11-23T17:59:14;6.80;99.90
17671;DHT22;8954;48.694;8.940;2022-11-23T18:01:40;6.80;99.90
17671;DHT22;8954;48.694;8.940;2022-11-23T18:04:05;6.80;99.90
17671;DHT22;8954;48.694;8.940;2022-11-23T18:06:31;6.80;99.90
17671;DHT22;8954;48.694;8.940;2022-11-23T18:08:57;6.70;99.90
17671;DHT22;8954;48.694;8.940;2022-11-23T18:11:23;6.70;99.90
17671;DHT22;8954;48.694;8.940;2022-11-23T18:13:49;6.70;99.90
17671;DHT22;8954;48.694;8.940;2022-11-23T18:16:17;6.80;99.90
17671;DHT22;8954;48.694;8.940;2022-11-23T18:18:43;6.70;99.90
17671;DHT22;8954;48.694;8.940;2022-11-23T18:21:09;6.70;99.90
17671;DHT22;8954;48.694;8.940;2022-11-23T18:23:35;6.80;99.90
17671;DHT22;8954;48.694;8.940;2022-11-23T18:28:40;6.70;99.90
17671;DHT22;8954;48.694;8.940;2022-11-23T18:31:14;6.70;99.90
17671;DHT22;8954;48.694;8.940;2022-11-23T18:33:56;6.70;99.90
17671;DHT22;8954;48.694;8.940;2022-11-23T18:36:22;6.70;99.90
17671;DHT22;8954;48.694;8.940;2022-11-23T18:38:47;6.70;99.90
17671;DHT22;8954;48.694;8.940;2022-11-23T18:41:14;6.70;99.90
